sensor_id;sensor_type;location;lat;lon;timestamp;P1;durP1;ratioP1;P2;durP2;ratioP2
84266;SDS011;74414;51.098;13.716;2024-03-17T00:01:35;4.85;;;1.90;;
84266;SDS011;74414;51.098;13.716;2024-03-17T00:04:01;2.75;;;1.80;;
84266;SDS011;74414;51.098;13.716;2024-03-17T00:06:27;2.75;;;1.67;;
84266;SDS011;74414;51.098;13.716;2024-03-17T00:08:52;4.40;;;2.50;;
84266;SDS011;74414;51.098;13.716;2024-03-17T00:11:19;5.93;;;2.08;;
84266;SDS011;74414;51.098;13.716;2024-03-17T00:13:44;3.20;;;2.33;;
84266;SDS011;74414;51.098;13.716;2024-03-17T00:16:09;4.90;;;2.00;;
84266;SDS011;74414;51.098;13.716;2024-03-17T00:18:34;7.45;;;2.20;;
84266;SDS011;74414;51.098;13.716;2024-03-17T00:21:01;4.07;;;2.00;;
84266;SDS011;74414;51.098;13.716;2024-03-17T00:23:27;5.43;;;2.17;;
84266;SDS011;74414;51.098;13.716;2024-03-17T00:25:54;3.70;;;2.00;;
84266;SDS011;74414;51.098;13.716;2024-03-17T00:28:20;5.78;;;1.90;;
84266;SDS011;74414;51.098;13.716;2024-03-17T00:30:45;3.42;;;1.90;;
84266;SDS011;74414;51.098;13.716;2024-03-17T00:33:11;3.42;;;2.22;;
84266;SDS011;74414;51.098;13.716;2024-03-17T00:35:36;5.45;;;2.10;;
84266;SDS011;74414;51.098;13.716;2024-03-17T00:38:02;4.03;;;2.15;;
84266;SDS011;74414;51.098;13.716;2024-03-17T00:40:35;7.68;;;2.00;;
84266;SDS011;74414;51.098;13.716;2024-03-17T00:43:00;9.67;;;2.77;;
84266;SDS011;74414;51.098;13.716;2024-03-17T00:45:25;3.10;;;1.70;;
84266;SDS011;74414;51.098;13.716;2024-03-17T00:47:51;3.65;;;1.88;;
84266;SDS011;74414;51.098;13.716;2024-03-17T00:50:16;4.53;;;1.97;;
84266;SDS011;74414;51.098;13.716;2024-03-17T00:52:41;3.05;;;1.75;;
84266;SDS011;74414;51.098;13.716;2024-03-17T00:55:07;3.30;;;1.53;;
84266;SDS011;74414;51.098;13.716;2024-03-17T00:57:34;3.45;;;1.60;;
84266;SDS011;74414;51.098;13.716;2024-03-17T00:59:59;4.73;;;2.27;;
84266;SDS011;74414;51.098;13.716;2024-03-17T01:02:25;3.67;;;2.20;;
84266;SDS011;74414;51.098;13.716;2024-03-17T01:04:50;6.47;;;2.22;;
84266;SDS011;74414;51.098;13.716;2024-03-17T01:07:15;4.72;;;2.60;;
84266;SDS011;74414;51.098;13.716;2024-03-17T01:09:41;5.35;;;1.88;;
84266;SDS011;74414;51.098;13.716;2024-03-17T01:12:06;4.78;;;1.98;;
84266;SDS011;74414;51.098;13.716;2024-03-17T01:14:32;1.95;;;1.63;;
84266;SDS011;74414;51.098;13.716;2024-03-17T01:16:58;4.90;;;2.55;;
84266;SDS011;74414;51.098;13.716;2024-03-17T01:19:25;4.40;;;2.00;;
84266;SDS011;74414;51.098;13.716;2024-03-17T01:21:51;3.50;;;1.85;;
84266;SDS011;74414;51.098;13.716;2024-03-17T01:24:17;4.45;;;2.28;;
84266;SDS011;74414;51.098;13.716;2024-03-17T01:26:43;8.55;;;2.22;;
84266;SDS011;74414;51.098;13.716;2024-03-17T01:29:09;4.10;;;2.40;;
84266;SDS011;74414;51.098;13.716;2024-03-17T01:31:35;5.72;;;2.60;;
84266;SDS011;74414;51.098;13.716;2024-03-17T01:34:00;4.55;;;1.90;;
84266;SDS011;74414;51.098;13.716;2024-03-17T01:36:26;3.88;;;2.33;;
84266;SDS011;74414;51.098;13.716;2024-03-17T01:38:51;7.22;;;2.25;;
84266;SDS011;74414;51.098;13.716;2024-03-17T01:41:17;8.20;;;2.33;;
84266;SDS011;74414;51.098;13.716;2024-03-17T01:43:42;5.55;;;2.40;;
84266;SDS011;74414;51.098;13.716;2024-03-17T01:46:10;3.33;;;2.17;;
84266;SDS011;74414;51.098;13.716;2024-03-17T01:48:38;4.28;;;2.50;;
84266;SDS011;74414;51.098;13.716;2024-03-17T01:51:04;3.72;;;2.15;;
84266;SDS011;74414;51.098;13.716;2024-03-17T01:53:30;5.03;;;2.25;;
84266;SDS011;74414;51.098;13.716;2024-03-17T01:55:56;4.85;;;2.50;;
84266;SDS011;74414;51.098;13.716;2024-03-17T01:58:27;5.03;;;2.45;;
84266;SDS011;74414;51.098;13.716;2024-03-17T02:03:21;4.60;;;2.08;;
84266;SDS011;74414;51.098;13.716;2024-03-17T02:05:46;4.05;;;2.50;;
84266;SDS011;74414;51.098;13.716;2024-03-17T02:08:13;3.97;;;2.47;;
84266;SDS011;74414;51.098;13.716;2024-03-17T02:10:39;5.38;;;2.40;;
84266;SDS011;74414;51.098;13.716;2024-03-17T02:13:04;5.32;;;2.97;;
84266;SDS011;74414;51.098;13.716;2024-03-17T02:15:31;3.30;;;2.10;;
84266;SDS011;74414;51.098;13.716;2024-03-17T02:17:57;7.38;;;2.72;;
84266;SDS011;74414;51.098;13.716;2024-03-17T02:20:23;5.53;;;2.63;;
84266;SDS011;74414;51.098;13.716;2024-03-17T02:23:08;7.47;;;2.95;;
84266;SDS011;74414;51.098;13.716;2024-03-17T02:25:34;4.75;;;2.28;;
84266;SDS011;74414;51.098;13.716;2024-03-17T02:28:00;6.30;;;2.40;;
84266;SDS011;74414;51.098;13.716;2024-03-17T02:30:26;5.35;;;2.58;;
84266;SDS011;74414;51.098;13.716;2024-03-17T02:32:52;5.82;;;2.15;;
84266;SDS011;74414;51.098;13.716;2024-03-17T02:35:19;4.28;;;2.50;;
84266;SDS011;74414;51.098;13.716;2024-03-17T02:37:44;5.05;;;2.78;;
84266;SDS011;74414;51.098;13.716;2024-03-17T02:40:10;5.70;;;2.53;;
84266;SDS011;74414;51.098;13.716;2024-03-17T02:42:36;4.90;;;2.47;;
84266;SDS011;74414;51.098;13.716;2024-03-17T02:45:03;5.43;;;2.38;;
84266;SDS011;74414;51.098;13.716;2024-03-17T02:47:30;6.70;;;2.45;;
84266;SDS011;74414;51.098;13.716;2024-03-17T02:49:55;5.32;;;3.10;;
84266;SDS011;74414;51.098;13.716;2024-03-17T02:52:20;5.25;;;2.50;;
84266;SDS011;74414;51.098;13.716;2024-03-17T02:54:46;5.10;;;2.35;;
84266;SDS011;74414;51.098;13.716;2024-03-17T02:57:12;5.65;;;2.58;;
84266;SDS011;74414;51.098;13.716;2024-03-17T02:59:37;4.43;;;2.08;;
84266;SDS011;74414;51.098;13.716;2024-03-17T03:02:02;5.20;;;2.53;;
84266;SDS011;74414;51.098;13.716;2024-03-17T03:04:28;3.40;;;2.10;;
84266;SDS011;74414;51.098;13.716;2024-03-17T03:06:53;4.05;;;2.35;;
84266;SDS011;74414;51.098;13.716;2024-03-17T03:09:19;6.03;;;2.40;;
84266;SDS011;74414;51.098;13.716;2024-03-17T03:11:56;4.13;;;2.60;;
84266;SDS011;74414;51.098;13.716;2024-03-17T03:14:21;8.55;;;3.40;;
84266;SDS011;74414;51.098;13.716;2024-03-17T03:16:47;6.90;;;2.67;;
84266;SDS011;74414;51.098;13.716;2024-03-17T03:19:12;5.85;;;2.63;;
84266;SDS011;74414;51.098;13.716;2024-03-17T03:21:37;5.63;;;2.50;;
84266;SDS011;74414;51.098;13.716;2024-03-17T03:24:03;6.40;;;3.00;;
84266;SDS011;74414;51.098;13.716;2024-03-17T03:26:28;4.78;;;2.10;;
84266;SDS011;74414;51.098;13.716;2024-03-17T03:28:53;5.90;;;2.80;;
84266;SDS011;74414;51.098;13.716;2024-03-17T03:31:20;4.97;;;2.60;;
84266;SDS011;74414;51.098;13.716;2024-03-17T03:33:47;3.17;;;2.10;;
84266;SDS011;74414;51.098;13.716;2024-03-17T03:36:13;3.85;;;2.33;;
84266;SDS011;74414;51.098;13.716;2024-03-17T03:38:40;3.67;;;2.25;;
84266;SDS011;74414;51.098;13.716;2024-03-17T03:41:06;6.40;;;2.75;;
84266;SDS011;74414;51.098;13.716;2024-03-17T03:43:32;4.03;;;2.72;;
84266;SDS011;74414;51.098;13.716;2024-03-17T03:45:59;5.50;;;2.60;;
84266;SDS011;74414;51.098;13.716;2024-03-17T03:48:25;6.10;;;2.65;;
84266;SDS011;74414;51.098;13.716;2024-03-17T03:50:50;5.13;;;2.23;;
84266;SDS011;74414;51.098;13.716;2024-03-17T03:53:15;5.53;;;2.93;;
84266;SDS011;74414;51.098;13.716;2024-03-17T03:55:41;6.57;;;2.80;;
84266;SDS011;74414;51.098;13.716;2024-03-17T03:58:07;5.05;;;2.63;;
84266;SDS011;74414;51.098;13.716;2024-03-17T04:00:32;6.15;;;2.88;;
84266;SDS011;74414;51.098;13.716;2024-03-17T04:02:58;5.70;;;2.55;;
84266;SDS011;74414;51.098;13.716;2024-03-17T04:05:24;3.72;;;2.63;;
84266;SDS011;74414;51.098;13.716;2024-03-17T04:07:50;3.95;;;2.60;;
84266;SDS011;74414;51.098;13.716;2024-03-17T04:10:15;8.95;;;2.90;;
84266;SDS011;74414;51.098;13.716;2024-03-17T04:12:43;6.50;;;2.25;;
84266;SDS011;74414;51.098;13.716;2024-03-17T04:15:09;5.28;;;2.72;;
84266;SDS011;74414;51.098;13.716;2024-03-17T04:17:40;4.53;;;2.20;;
84266;SDS011;74414;51.098;13.716;2024-03-17T04:20:05;4.57;;;3.03;;
84266;SDS011;74414;51.098;13.716;2024-03-17T04:22:35;4.68;;;2.70;;
84266;SDS011;74414;51.098;13.716;2024-03-17T04:25:02;5.07;;;2.65;;
84266;SDS011;74414;51.098;13.716;2024-03-17T04:27:28;8.10;;;2.58;;
84266;SDS011;74414;51.098;13.716;2024-03-17T04:29:56;6.93;;;2.15;;
84266;SDS011;74414;51.098;13.716;2024-03-17T04:32:23;3.90;;;2.65;;
84266;SDS011;74414;51.098;13.716;2024-03-17T04:34:49;3.78;;;2.47;;
84266;SDS011;74414;51.098;13.716;2024-03-17T04:37:14;2.72;;;2.03;;
84266;SDS011;74414;51.098;13.716;2024-03-17T04:39:40;11.40;;;2.92;;
84266;SDS011;74414;51.098;13.716;2024-03-17T04:42:10;5.05;;;2.25;;
84266;SDS011;74414;51.098;13.716;2024-03-17T04:44:36;6.38;;;2.47;;
84266;SDS011;74414;51.098;13.716;2024-03-17T04:47:02;5.20;;;2.28;;
84266;SDS011;74414;51.098;13.716;2024-03-17T04:49:32;6.15;;;2.25;;
84266;SDS011;74414;51.098;13.716;2024-03-17T04:52:03;4.45;;;2.63;;
84266;SDS011;74414;51.098;13.716;2024-03-17T04:54:33;7.72;;;3.00;;
84266;SDS011;74414;51.098;13.716;2024-03-17T04:56:58;5.65;;;2.83;;
84266;SDS011;74414;51.098;13.716;2024-03-17T04:59:24;4.55;;;2.35;;
84266;SDS011;74414;51.098;13.716;2024-03-17T05:01:50;5.28;;;2.80;;
84266;SDS011;74414;51.098;13.716;2024-03-17T05:04:15;7.53;;;2.63;;
84266;SDS011;74414;51.098;13.716;2024-03-17T05:06:41;6.07;;;2.50;;
84266;SDS011;74414;51.098;13.716;2024-03-17T05:09:07;6.03;;;2.38;;
84266;SDS011;74414;51.098;13.716;2024-03-17T05:11:33;7.53;;;3.13;;
84266;SDS011;74414;51.098;13.716;2024-03-17T05:14:00;5.10;;;2.42;;
84266;SDS011;74414;51.098;13.716;2024-03-17T05:16:26;7.25;;;2.72;;
84266;SDS011;74414;51.098;13.716;2024-03-17T05:18:54;5.57;;;2.65;;
84266;SDS011;74414;51.098;13.716;2024-03-17T05:21:20;4.55;;;2.35;;
84266;SDS011;74414;51.098;13.716;2024-03-17T05:23:47;4.85;;;2.55;;
84266;SDS011;74414;51.098;13.716;2024-03-17T05:26:13;6.05;;;2.75;;
84266;SDS011;74414;51.098;13.716;2024-03-17T05:28:38;6.18;;;2.55;;
84266;SDS011;74414;51.098;13.716;2024-03-17T05:31:04;7.10;;;2.17;;
84266;SDS011;74414;51.098;13.716;2024-03-17T05:33:29;6.78;;;2.50;;
84266;SDS011;74414;51.098;13.716;2024-03-17T05:35:55;4.47;;;2.50;;
84266;SDS011;74414;51.098;13.716;2024-03-17T05:38:22;6.72;;;2.90;;
84266;SDS011;74414;51.098;13.716;2024-03-17T05:40:53;4.00;;;2.78;;
84266;SDS011;74414;51.098;13.716;2024-03-17T05:43:19;6.18;;;2.40;;
84266;SDS011;74414;51.098;13.716;2024-03-17T05:45:45;6.05;;;2.40;;
84266;SDS011;74414;51.098;13.716;2024-03-17T05:48:10;4.70;;;2.13;;
84266;SDS011;74414;51.098;13.716;2024-03-17T05:50:36;6.50;;;2.30;;
84266;SDS011;74414;51.098;13.716;2024-03-17T05:53:01;5.65;;;2.63;;
84266;SDS011;74414;51.098;13.716;2024-03-17T05:55:26;5.78;;;2.95;;
84266;SDS011;74414;51.098;13.716;2024-03-17T05:57:52;5.68;;;2.90;;
84266;SDS011;74414;51.098;13.716;2024-03-17T06:00:17;4.25;;;2.08;;
84266;SDS011;74414;51.098;13.716;2024-03-17T06:02:44;7.00;;;2.33;;
84266;SDS011;74414;51.098;13.716;2024-03-17T06:05:09;9.23;;;2.80;;
84266;SDS011;74414;51.098;13.716;2024-03-17T06:07:37;5.63;;;2.15;;
84266;SDS011;74414;51.098;13.716;2024-03-17T06:10:02;6.27;;;2.60;;
84266;SDS011;74414;51.098;13.716;2024-03-17T06:12:28;6.20;;;2.97;;
84266;SDS011;74414;51.098;13.716;2024-03-17T06:14:53;6.47;;;3.53;;
84266;SDS011;74414;51.098;13.716;2024-03-17T06:17:18;4.70;;;2.33;;
84266;SDS011;74414;51.098;13.716;2024-03-17T06:19:44;6.00;;;2.97;;
84266;SDS011;74414;51.098;13.716;2024-03-17T06:22:09;7.03;;;2.58;;
84266;SDS011;74414;51.098;13.716;2024-03-17T06:24:34;5.33;;;2.33;;
84266;SDS011;74414;51.098;13.716;2024-03-17T06:27:00;7.40;;;3.00;;
84266;SDS011;74414;51.098;13.716;2024-03-17T06:29:26;6.93;;;2.58;;
84266;SDS011;74414;51.098;13.716;2024-03-17T06:31:51;7.47;;;3.20;;
84266;SDS011;74414;51.098;13.716;2024-03-17T06:34:16;3.83;;;2.60;;
84266;SDS011;74414;51.098;13.716;2024-03-17T06:36:43;6.95;;;2.70;;
84266;SDS011;74414;51.098;13.716;2024-03-17T06:39:08;6.43;;;2.63;;
84266;SDS011;74414;51.098;13.716;2024-03-17T06:41:33;4.50;;;2.37;;
84266;SDS011;74414;51.098;13.716;2024-03-17T06:43:59;6.35;;;2.53;;
84266;SDS011;74414;51.098;13.716;2024-03-17T06:46:24;3.97;;;2.17;;
84266;SDS011;74414;51.098;13.716;2024-03-17T06:48:50;7.05;;;2.60;;
84266;SDS011;74414;51.098;13.716;2024-03-17T06:51:16;8.18;;;3.10;;
84266;SDS011;74414;51.098;13.716;2024-03-17T06:53:41;6.93;;;2.67;;
84266;SDS011;74414;51.098;13.716;2024-03-17T06:56:07;3.00;;;2.13;;
84266;SDS011;74414;51.098;13.716;2024-03-17T06:58:33;5.45;;;2.40;;
84266;SDS011;74414;51.098;13.716;2024-03-17T07:00:59;5.20;;;2.00;;
84266;SDS011;74414;51.098;13.716;2024-03-17T07:03:26;3.83;;;2.13;;
84266;SDS011;74414;51.098;13.716;2024-03-17T07:05:53;4.50;;;2.03;;
84266;SDS011;74414;51.098;13.716;2024-03-17T07:08:19;6.90;;;3.70;;
84266;SDS011;74414;51.098;13.716;2024-03-17T07:10:55;6.68;;;1.77;;
84266;SDS011;74414;51.098;13.716;2024-03-17T07:13:21;7.68;;;2.17;;
84266;SDS011;74414;51.098;13.716;2024-03-17T07:15:47;6.43;;;2.27;;
84266;SDS011;74414;51.098;13.716;2024-03-17T07:18:12;5.40;;;2.17;;
84266;SDS011;74414;51.098;13.716;2024-03-17T07:20:38;5.03;;;2.08;;
84266;SDS011;74414;51.098;13.716;2024-03-17T07:23:04;3.83;;;1.70;;
84266;SDS011;74414;51.098;13.716;2024-03-17T07:25:29;7.80;;;2.08;;
84266;SDS011;74414;51.098;13.716;2024-03-17T07:27:55;6.80;;;2.27;;
84266;SDS011;74414;51.098;13.716;2024-03-17T07:30:20;6.93;;;2.07;;
84266;SDS011;74414;51.098;13.716;2024-03-17T07:32:45;4.40;;;2.00;;
84266;SDS011;74414;51.098;13.716;2024-03-17T07:35:11;7.80;;;3.03;;
84266;SDS011;74414;51.098;13.716;2024-03-17T07:37:36;7.77;;;1.70;;
84266;SDS011;74414;51.098;13.716;2024-03-17T07:40:03;5.50;;;1.90;;
84266;SDS011;74414;51.098;13.716;2024-03-17T07:42:29;7.05;;;1.77;;
84266;SDS011;74414;51.098;13.716;2024-03-17T07:44:56;4.50;;;1.55;;
84266;SDS011;74414;51.098;13.716;2024-03-17T07:47:22;7.60;;;1.73;;
84266;SDS011;74414;51.098;13.716;2024-03-17T07:49:47;5.05;;;2.08;;
84266;SDS011;74414;51.098;13.716;2024-03-17T07:52:13;5.28;;;1.63;;
84266;SDS011;74414;51.098;13.716;2024-03-17T07:54:38;6.00;;;2.07;;
84266;SDS011;74414;51.098;13.716;2024-03-17T07:57:03;6.22;;;1.98;;
84266;SDS011;74414;51.098;13.716;2024-03-17T07:59:29;7.00;;;2.22;;
84266;SDS011;74414;51.098;13.716;2024-03-17T08:01:56;5.93;;;1.90;;
84266;SDS011;74414;51.098;13.716;2024-03-17T08:04:21;6.78;;;1.67;;
84266;SDS011;74414;51.098;13.716;2024-03-17T08:06:47;6.47;;;1.67;;
84266;SDS011;74414;51.098;13.716;2024-03-17T08:09:12;7.63;;;1.90;;
84266;SDS011;74414;51.098;13.716;2024-03-17T08:11:37;5.30;;;1.30;;
84266;SDS011;74414;51.098;13.716;2024-03-17T08:14:03;6.13;;;1.75;;
84266;SDS011;74414;51.098;13.716;2024-03-17T08:16:29;5.22;;;1.50;;
84266;SDS011;74414;51.098;13.716;2024-03-17T08:18:55;4.57;;;1.85;;
84266;SDS011;74414;51.098;13.716;2024-03-17T08:21:21;5.40;;;1.35;;
84266;SDS011;74414;51.098;13.716;2024-03-17T08:23:46;6.30;;;1.90;;
84266;SDS011;74414;51.098;13.716;2024-03-17T08:26:12;7.03;;;1.75;;
84266;SDS011;74414;51.098;13.716;2024-03-17T08:28:37;5.30;;;1.55;;
84266;SDS011;74414;51.098;13.716;2024-03-17T08:31:03;7.33;;;1.50;;
84266;SDS011;74414;51.098;13.716;2024-03-17T08:33:29;6.43;;;1.40;;
84266;SDS011;74414;51.098;13.716;2024-03-17T08:38:41;5.75;;;1.70;;
84266;SDS011;74414;51.098;13.716;2024-03-17T08:41:07;4.18;;;1.88;;
84266;SDS011;74414;51.098;13.716;2024-03-17T08:43:35;6.70;;;1.65;;
84266;SDS011;74414;51.098;13.716;2024-03-17T08:46:02;4.50;;;1.80;;
84266;SDS011;74414;51.098;13.716;2024-03-17T08:48:31;6.50;;;1.95;;
84266;SDS011;74414;51.098;13.716;2024-03-17T08:51:01;7.63;;;2.05;;
84266;SDS011;74414;51.098;13.716;2024-03-17T08:53:27;5.25;;;1.80;;
84266;SDS011;74414;51.098;13.716;2024-03-17T08:55:53;7.10;;;1.52;;
84266;SDS011;74414;51.098;13.716;2024-03-17T08:58:19;4.57;;;1.70;;
84266;SDS011;74414;51.098;13.716;2024-03-17T09:00:44;3.20;;;2.00;;
84266;SDS011;74414;51.098;13.716;2024-03-17T09:03:10;9.98;;;1.75;;
84266;SDS011;74414;51.098;13.716;2024-03-17T09:05:37;6.55;;;1.77;;
84266;SDS011;74414;51.098;13.716;2024-03-17T09:08:03;4.10;;;1.60;;
84266;SDS011;74414;51.098;13.716;2024-03-17T09:10:29;7.72;;;1.95;;
84266;SDS011;74414;51.098;13.716;2024-03-17T09:12:54;8.73;;;1.90;;
84266;SDS011;74414;51.098;13.716;2024-03-17T09:15:19;8.07;;;2.30;;
84266;SDS011;74414;51.098;13.716;2024-03-17T09:17:45;8.32;;;1.92;;
84266;SDS011;74414;51.098;13.716;2024-03-17T09:20:11;5.25;;;2.03;;
84266;SDS011;74414;51.098;13.716;2024-03-17T09:22:39;4.53;;;1.85;;
84266;SDS011;74414;51.098;13.716;2024-03-17T09:25:06;3.72;;;1.80;;
84266;SDS011;74414;51.098;13.716;2024-03-17T09:27:35;6.28;;;2.10;;
84266;SDS011;74414;51.098;13.716;2024-03-17T09:30:04;5.18;;;1.70;;
84266;SDS011;74414;51.098;13.716;2024-03-17T09:32:36;4.63;;;1.25;;
84266;SDS011;74414;51.098;13.716;2024-03-17T09:35:01;2.45;;;1.20;;
84266;SDS011;74414;51.098;13.716;2024-03-17T09:37:28;4.75;;;1.13;;
84266;SDS011;74414;51.098;13.716;2024-03-17T09:39:56;5.88;;;1.40;;
84266;SDS011;74414;51.098;13.716;2024-03-17T09:42:22;4.07;;;1.20;;
84266;SDS011;74414;51.098;13.716;2024-03-17T09:44:49;5.78;;;1.20;;
84266;SDS011;74414;51.098;13.716;2024-03-17T09:47:20;5.43;;;1.40;;
84266;SDS011;74414;51.098;13.716;2024-03-17T09:49:47;5.65;;;1.75;;
84266;SDS011;74414;51.098;13.716;2024-03-17T09:52:18;4.47;;;1.42;;
84266;SDS011;74414;51.098;13.716;2024-03-17T09:54:46;3.67;;;1.20;;
84266;SDS011;74414;51.098;13.716;2024-03-17T09:57:14;3.28;;;1.00;;
84266;SDS011;74414;51.098;13.716;2024-03-17T10:02:09;4.83;;;1.20;;
84266;SDS011;74414;51.098;13.716;2024-03-17T10:04:43;2.60;;;1.13;;
84266;SDS011;74414;51.098;13.716;2024-03-17T10:07:08;2.05;;;0.90;;
84266;SDS011;74414;51.098;13.716;2024-03-17T10:09:33;4.03;;;1.37;;
84266;SDS011;74414;51.098;13.716;2024-03-17T10:11:59;2.70;;;1.15;;
84266;SDS011;74414;51.098;13.716;2024-03-17T10:14:24;3.95;;;1.45;;
84266;SDS011;74414;51.098;13.716;2024-03-17T10:16:49;3.67;;;1.40;;
84266;SDS011;74414;51.098;13.716;2024-03-17T10:21:49;3.65;;;1.00;;
84266;SDS011;74414;51.098;13.716;2024-03-17T10:26:48;4.05;;;1.25;;
84266;SDS011;74414;51.098;13.716;2024-03-17T10:29:19;4.22;;;1.10;;
84266;SDS011;74414;51.098;13.716;2024-03-17T10:32:18;5.85;;;1.20;;
84266;SDS011;74414;51.098;13.716;2024-03-17T10:34:44;5.18;;;1.60;;
84266;SDS011;74414;51.098;13.716;2024-03-17T10:37:11;4.32;;;0.95;;
84266;SDS011;74414;51.098;13.716;2024-03-17T10:39:39;2.65;;;1.20;;
84266;SDS011;74414;51.098;13.716;2024-03-17T10:42:07;3.92;;;1.27;;
84266;SDS011;74414;51.098;13.716;2024-03-17T10:44:40;5.43;;;1.50;;
84266;SDS011;74414;51.098;13.716;2024-03-17T10:47:13;4.35;;;1.20;;
84266;SDS011;74414;51.098;13.716;2024-03-17T10:49:45;2.15;;;1.23;;
84266;SDS011;74414;51.098;13.716;2024-03-17T10:52:17;3.17;;;1.10;;
84266;SDS011;74414;51.098;13.716;2024-03-17T10:54:47;2.35;;;1.35;;
84266;SDS011;74414;51.098;13.716;2024-03-17T11:00:00;3.25;;;1.30;;
84266;SDS011;74414;51.098;13.716;2024-03-17T11:02:31;4.88;;;1.90;;
84266;SDS011;74414;51.098;13.716;2024-03-17T11:07:31;5.95;;;1.33;;
84266;SDS011;74414;51.098;13.716;2024-03-17T11:09:59;5.75;;;1.30;;
84266;SDS011;74414;51.098;13.716;2024-03-17T11:17:46;4.35;;;1.35;;
84266;SDS011;74414;51.098;13.716;2024-03-17T11:20:14;4.80;;;1.30;;
84266;SDS011;74414;51.098;13.716;2024-03-17T11:22:41;3.60;;;1.23;;
84266;SDS011;74414;51.098;13.716;2024-03-17T11:27:51;6.53;;;1.40;;
84266;SDS011;74414;51.098;13.716;2024-03-17T11:39:17;3.35;;;1.63;;
84266;SDS011;74414;51.098;13.716;2024-03-17T11:41:46;2.92;;;1.60;;
84266;SDS011;74414;51.098;13.716;2024-03-17T11:46:54;5.63;;;1.55;;
84266;SDS011;74414;51.098;13.716;2024-03-17T11:49:23;4.47;;;1.60;;
84266;SDS011;74414;51.098;13.716;2024-03-17T11:51:51;2.20;;;1.45;;
84266;SDS011;74414;51.098;13.716;2024-03-17T11:54:17;4.50;;;1.48;;
84266;SDS011;74414;51.098;13.716;2024-03-17T11:56:45;5.03;;;1.30;;
84266;SDS011;74414;51.098;13.716;2024-03-17T11:59:14;2.20;;;1.30;;
84266;SDS011;74414;51.098;13.716;2024-03-17T12:01:42;2.13;;;1.23;;
84266;SDS011;74414;51.098;13.716;2024-03-17T12:04:08;6.00;;;1.50;;
84266;SDS011;74414;51.098;13.716;2024-03-17T12:06:35;3.70;;;1.63;;
84266;SDS011;74414;51.098;13.716;2024-03-17T12:09:11;3.08;;;1.60;;
84266;SDS011;74414;51.098;13.716;2024-03-17T12:11:46;2.45;;;1.15;;
84266;SDS011;74414;51.098;13.716;2024-03-17T12:14:33;2.42;;;1.10;;
84266;SDS011;74414;51.098;13.716;2024-03-17T12:17:02;3.95;;;1.30;;
84266;SDS011;74414;51.098;13.716;2024-03-17T12:19:29;5.05;;;1.63;;
84266;SDS011;74414;51.098;13.716;2024-03-17T12:21:55;6.10;;;1.55;;
84266;SDS011;74414;51.098;13.716;2024-03-17T12:24:25;6.95;;;1.40;;
84266;SDS011;74414;51.098;13.716;2024-03-17T12:26:52;6.40;;;1.75;;
84266;SDS011;74414;51.098;13.716;2024-03-17T12:29:35;3.88;;;1.42;;
84266;SDS011;74414;51.098;13.716;2024-03-17T12:32:03;4.63;;;1.48;;
84266;SDS011;74414;51.098;13.716;2024-03-17T12:34:32;2.97;;;1.60;;
84266;SDS011;74414;51.098;13.716;2024-03-17T12:37:01;3.88;;;1.30;;
84266;SDS011;74414;51.098;13.716;2024-03-17T12:39:30;4.15;;;1.65;;
84266;SDS011;74414;51.098;13.716;2024-03-17T12:44:28;3.95;;;1.50;;
84266;SDS011;74414;51.098;13.716;2024-03-17T12:47:04;4.07;;;2.67;;
84266;SDS011;74414;51.098;13.716;2024-03-17T12:49:31;4.50;;;1.88;;
84266;SDS011;74414;51.098;13.716;2024-03-17T12:51:59;3.88;;;1.75;;
84266;SDS011;74414;51.098;13.716;2024-03-17T12:54:26;5.70;;;1.38;;
84266;SDS011;74414;51.098;13.716;2024-03-17T12:57:03;3.38;;;1.50;;
84266;SDS011;74414;51.098;13.716;2024-03-17T12:59:48;4.00;;;1.50;;
84266;SDS011;74414;51.098;13.716;2024-03-17T13:02:32;4.55;;;1.52;;
84266;SDS011;74414;51.098;13.716;2024-03-17T13:05:10;2.00;;;1.40;;
84266;SDS011;74414;51.098;13.716;2024-03-17T13:07:41;1.75;;;1.30;;
84266;SDS011;74414;51.098;13.716;2024-03-17T13:10:06;3.75;;;1.30;;
84266;SDS011;74414;51.098;13.716;2024-03-17T13:12:33;2.72;;;1.40;;
84266;SDS011;74414;51.098;13.716;2024-03-17T13:14:59;5.05;;;1.50;;
84266;SDS011;74414;51.098;13.716;2024-03-17T13:17:25;4.40;;;1.60;;
84266;SDS011;74414;51.098;13.716;2024-03-17T13:19:50;3.40;;;1.67;;
84266;SDS011;74414;51.098;13.716;2024-03-17T13:22:15;4.60;;;2.00;;
84266;SDS011;74414;51.098;13.716;2024-03-17T13:24:40;7.03;;;3.43;;
84266;SDS011;74414;51.098;13.716;2024-03-17T13:27:06;4.73;;;1.90;;
84266;SDS011;74414;51.098;13.716;2024-03-17T13:29:33;3.13;;;1.52;;
84266;SDS011;74414;51.098;13.716;2024-03-17T13:32:01;2.70;;;1.48;;
84266;SDS011;74414;51.098;13.716;2024-03-17T13:34:27;2.70;;;1.60;;
84266;SDS011;74414;51.098;13.716;2024-03-17T13:36:53;3.72;;;1.42;;
84266;SDS011;74414;51.098;13.716;2024-03-17T13:39:19;4.50;;;1.70;;
84266;SDS011;74414;51.098;13.716;2024-03-17T13:41:46;3.90;;;1.50;;
84266;SDS011;74414;51.098;13.716;2024-03-17T13:44:12;5.28;;;1.75;;
84266;SDS011;74414;51.098;13.716;2024-03-17T13:46:37;7.65;;;2.33;;
84266;SDS011;74414;51.098;13.716;2024-03-17T13:49:09;6.33;;;1.80;;
84266;SDS011;74414;51.098;13.716;2024-03-17T13:51:35;3.95;;;1.92;;
84266;SDS011;74414;51.098;13.716;2024-03-17T13:54:00;3.97;;;1.73;;
84266;SDS011;74414;51.098;13.716;2024-03-17T13:56:26;5.03;;;2.30;;
84266;SDS011;74414;51.098;13.716;2024-03-17T13:58:52;4.90;;;1.58;;
84266;SDS011;74414;51.098;13.716;2024-03-17T14:01:17;5.18;;;1.83;;
84266;SDS011;74414;51.098;13.716;2024-03-17T14:03:42;4.50;;;2.10;;
84266;SDS011;74414;51.098;13.716;2024-03-17T14:06:08;5.72;;;2.00;;
84266;SDS011;74414;51.098;13.716;2024-03-17T14:08:34;4.70;;;1.70;;
84266;SDS011;74414;51.098;13.716;2024-03-17T14:11:00;4.55;;;1.85;;
84266;SDS011;74414;51.098;13.716;2024-03-17T14:13:26;4.47;;;1.90;;
84266;SDS011;74414;51.098;13.716;2024-03-17T14:15:51;3.67;;;1.43;;
84266;SDS011;74414;51.098;13.716;2024-03-17T14:18:20;7.18;;;2.00;;
84266;SDS011;74414;51.098;13.716;2024-03-17T14:20:46;6.97;;;1.80;;
84266;SDS011;74414;51.098;13.716;2024-03-17T14:23:12;4.07;;;2.05;;
84266;SDS011;74414;51.098;13.716;2024-03-17T14:25:37;4.72;;;3.15;;
84266;SDS011;74414;51.098;13.716;2024-03-17T14:28:04;5.35;;;2.30;;
84266;SDS011;74414;51.098;13.716;2024-03-17T14:30:29;3.33;;;2.03;;
84266;SDS011;74414;51.098;13.716;2024-03-17T14:32:56;3.03;;;1.83;;
84266;SDS011;74414;51.098;13.716;2024-03-17T14:35:21;5.20;;;1.80;;
84266;SDS011;74414;51.098;13.716;2024-03-17T14:37:47;6.10;;;1.90;;
84266;SDS011;74414;51.098;13.716;2024-03-17T14:40:14;4.68;;;1.95;;
84266;SDS011;74414;51.098;13.716;2024-03-17T14:42:46;4.22;;;2.10;;
84266;SDS011;74414;51.098;13.716;2024-03-17T14:45:11;5.47;;;1.80;;
84266;SDS011;74414;51.098;13.716;2024-03-17T14:47:37;3.03;;;1.83;;
84266;SDS011;74414;51.098;13.716;2024-03-17T14:50:02;5.15;;;1.85;;
84266;SDS011;74414;51.098;13.716;2024-03-17T14:52:28;4.20;;;1.60;;
84266;SDS011;74414;51.098;13.716;2024-03-17T14:54:53;6.93;;;2.20;;
84266;SDS011;74414;51.098;13.716;2024-03-17T14:57:21;4.88;;;1.95;;
84266;SDS011;74414;51.098;13.716;2024-03-17T14:59:47;3.40;;;1.77;;
84266;SDS011;74414;51.098;13.716;2024-03-17T15:02:12;3.65;;;1.80;;
84266;SDS011;74414;51.098;13.716;2024-03-17T15:04:37;6.70;;;2.03;;
84266;SDS011;74414;51.098;13.716;2024-03-17T15:07:03;8.07;;;1.93;;
84266;SDS011;74414;51.098;13.716;2024-03-17T15:09:28;4.97;;;2.00;;
84266;SDS011;74414;51.098;13.716;2024-03-17T15:11:54;7.00;;;2.10;;